createdAt,value
2022-10-02T00:02:10.854Z,8.65
2022-10-02T00:04:40.071Z,4.28
2022-10-02T00:07:10.599Z,4.88
2022-10-02T00:10:03.885Z,2.40
2022-10-02T00:12:31.365Z,7.03
2022-10-02T00:15:03.465Z,7.72
2022-10-02T00:17:35.221Z,8.52
2022-10-02T00:20:02.454Z,6.35
2022-10-02T00:22:43.167Z,6.40
2022-10-02T00:25:29.036Z,9.30
2022-10-02T00:28:22.285Z,3.88
2022-10-02T00:30:58.777Z,6.55
2022-10-02T00:33:33.730Z,3.40
2022-10-02T00:36:07.449Z,2.80
2022-10-02T00:38:34.955Z,3.08
2022-10-02T00:41:22.396Z,5.97
2022-10-02T00:44:08.003Z,9.10
2022-10-02T00:46:35.414Z,4.70
2022-10-02T00:49:21.659Z,6.00
2022-10-02T00:51:55.470Z,3.42
2022-10-02T00:54:25.364Z,8.10
2022-10-02T00:57:06.436Z,6.82
2022-10-02T00:59:43.093Z,8.88
2022-10-02T01:02:33.103Z,7.97
2022-10-02T01:05:00.786Z,10.35
2022-10-02T01:07:27.950Z,4.18
2022-10-02T01:09:55.260Z,9.43
2022-10-02T01:12:22.979Z,11.23
2022-10-02T01:14:50.317Z,4.72
2022-10-02T01:17:24.633Z,13.20
2022-10-02T01:19:52.236Z,12.35
2022-10-02T01:22:37.801Z,5.53
2022-10-02T01:25:06.450Z,9.65
2022-10-02T01:30:09.842Z,3.63
2022-10-02T01:32:39.067Z,9.77
2022-10-02T01:35:06.472Z,10.40
2022-10-02T01:37:36.301Z,11.40
2022-10-02T01:40:09.766Z,7.63
2022-10-02T01:42:38.489Z,11.18
2022-10-02T01:45:06.329Z,10.93
2022-10-02T01:47:44.637Z,7.05
2022-10-02T01:50:44.439Z,11.68
2022-10-02T01:53:20.369Z,10.68
2022-10-02T01:55:47.410Z,14.32
2022-10-02T01:58:20.599Z,16.55
2022-10-02T02:01:01.496Z,12.98
2022-10-02T02:03:31.508Z,15.38
2022-10-02T02:06:09.495Z,14.00
2022-10-02T02:08:40.662Z,12.93
2022-10-02T02:11:13.078Z,12.85
2022-10-02T02:13:46.144Z,18.55
2022-10-02T02:16:13.426Z,12.85
2022-10-02T02:18:40.517Z,11.82
2022-10-02T02:21:09.812Z,23.60
2022-10-02T02:23:39.200Z,20.58
2022-10-02T02:26:15.729Z,17.08
2022-10-02T02:28:45.451Z,10.63
2022-10-02T02:31:16.152Z,19.73
2022-10-02T02:33:46.626Z,19.90
2022-10-02T02:36:16.788Z,12.50
2022-10-02T02:38:46.622Z,16.58
2022-10-02T02:41:15.008Z,14.32
2022-10-02T02:44:02.773Z,19.13
2022-10-02T02:46:29.929Z,15.50
2022-10-02T02:49:01.881Z,12.68
2022-10-02T02:51:31.893Z,16.35
2022-10-02T02:54:14.873Z,12.95
2022-10-02T02:56:43.390Z,11.15
2022-10-02T02:59:14.849Z,20.60
2022-10-02T03:01:42.880Z,12.70
2022-10-02T03:04:12.711Z,12.82
2022-10-02T03:06:42.025Z,13.30
2022-10-02T03:09:13.732Z,15.55
2022-10-02T03:12:03.668Z,16.15
2022-10-02T03:14:49.373Z,14.27
2022-10-02T03:17:35.035Z,15.30
2022-10-02T03:20:08.724Z,9.38
2022-10-02T03:22:54.460Z,6.72
2022-10-02T03:25:26.352Z,7.57
2022-10-02T03:28:12.274Z,9.95
2022-10-02T03:30:41.228Z,19.90
2022-10-02T03:33:09.709Z,10.10
2022-10-02T03:35:37.275Z,11.02
2022-10-02T03:38:05.741Z,13.65
2022-10-02T03:40:32.821Z,10.18
2022-10-02T03:43:00.146Z,11.90
2022-10-02T03:45:50.124Z,14.75
2022-10-02T03:48:15.812Z,16.15
2022-10-02T03:50:43.003Z,12.32
2022-10-02T03:53:17.779Z,12.07
2022-10-02T04:00:42.333Z,17.75
2022-10-02T04:03:14.738Z,21.55
2022-10-02T04:05:45.657Z,10.82
2022-10-02T04:08:25.591Z,15.50
2022-10-02T04:11:00.365Z,11.20
2022-10-02T04:15:58.692Z,10.50
2022-10-02T04:18:28.603Z,17.38
2022-10-02T04:20:59.632Z,14.00
2022-10-02T04:23:26.679Z,12.38
2022-10-02T04:25:58.679Z,11.25
2022-10-02T04:28:29.485Z,12.32
2022-10-02T04:30:56.659Z,6.03
2022-10-02T04:33:25.316Z,10.68
2022-10-02T04:38:29.677Z,16.67
2022-10-02T04:41:08.919Z,10.00
2022-10-02T04:43:53.010Z,12.52
2022-10-02T04:46:20.097Z,15.98
2022-10-02T04:48:59.265Z,16.52
2022-10-02T04:51:44.386Z,8.55
2022-10-02T04:54:17.769Z,6.38
2022-10-02T04:57:08.143Z,11.95
2022-10-02T04:59:54.842Z,14.32
2022-10-02T05:02:28.161Z,15.55
2022-10-02T05:05:01.385Z,15.88
2022-10-02T05:07:53.015Z,7.18
2022-10-02T05:10:23.248Z,12.32
2022-10-02T05:13:05.484Z,15.05
2022-10-02T05:15:51.587Z,11.65
2022-10-02T05:18:18.712Z,7.90
2022-10-02T05:20:57.608Z,4.28
2022-10-02T05:23:24.690Z,12.75
2022-10-02T05:26:14.484Z,9.07
2022-10-02T05:29:04.168Z,11.63
2022-10-02T05:31:46.209Z,9.00
2022-10-02T05:34:13.421Z,12.60
2022-10-02T05:36:49.892Z,9.93
2022-10-02T05:39:31.925Z,10.15
2022-10-02T05:42:22.300Z,10.05
2022-10-02T05:44:53.318Z,12.13
2022-10-02T05:47:27.050Z,13.10
2022-10-02T05:50:00.224Z,6.22
2022-10-02T05:52:39.132Z,8.30
2022-10-02T05:55:19.282Z,7.38
2022-10-02T05:57:49.153Z,27.67
2022-10-02T06:00:16.876Z,13.68
2022-10-02T06:02:47.087Z,15.77
2022-10-02T06:05:20.109Z,14.60
2022-10-02T06:07:49.465Z,11.25
2022-10-02T06:10:20.561Z,17.77
2022-10-02T06:12:59.652Z,22.00
2022-10-02T06:15:29.685Z,15.98
2022-10-02T06:18:00.778Z,16.23
2022-10-02T06:20:33.413Z,17.88
2022-10-02T06:23:11.356Z,37.05
2022-10-02T06:25:39.953Z,34.20
2022-10-02T06:28:30.321Z,20.83
2022-10-02T06:31:12.105Z,28.00
2022-10-02T06:33:39.353Z,20.33
2022-10-02T06:36:14.608Z,24.20
2022-10-02T06:39:00.876Z,21.45
2022-10-02T06:41:31.080Z,17.52
2022-10-02T06:44:04.177Z,19.77
2022-10-02T06:46:31.271Z,12.45
2022-10-02T06:49:05.193Z,19.42
2022-10-02T06:51:38.124Z,22.58
2022-10-02T06:54:09.133Z,25.42
2022-10-02T06:56:51.535Z,17.90
2022-10-02T06:59:18.659Z,17.13
2022-10-02T07:01:47.040Z,19.23
2022-10-02T07:04:20.847Z,17.92
2022-10-02T07:06:59.225Z,12.95
2022-10-02T07:09:26.977Z,16.30
2022-10-02T07:12:12.454Z,12.75
2022-10-02T07:14:39.713Z,12.95
2022-10-02T07:17:22.042Z,15.10
2022-10-02T07:20:08.368Z,14.38
2022-10-02T07:22:50.268Z,16.35
2022-10-02T07:25:28.058Z,14.77
2022-10-02T07:28:13.156Z,15.25
2022-10-02T07:30:54.738Z,11.18
2022-10-02T07:33:40.371Z,12.52
2022-10-02T07:36:13.002Z,15.90
2022-10-02T07:39:01.541Z,20.25
2022-10-02T07:41:28.761Z,12.95
2022-10-02T07:44:05.303Z,13.10
2022-10-02T07:46:40.025Z,10.43
2022-10-02T07:49:07.066Z,9.13
2022-10-02T07:51:50.351Z,13.70
2022-10-02T07:54:23.493Z,14.63
2022-10-02T07:56:51.813Z,13.52
2022-10-02T07:59:21.464Z,10.38
2022-10-02T08:01:50.615Z,15.15
2022-10-02T08:04:27.003Z,16.13
2022-10-02T08:06:57.895Z,11.40
2022-10-02T08:10:00.335Z,12.80
2022-10-02T08:12:32.296Z,13.77
2022-10-02T08:15:00.054Z,8.88
2022-10-02T08:17:36.686Z,11.32
2022-10-02T08:20:09.186Z,12.05
2022-10-02T08:22:41.952Z,13.75
2022-10-02T08:25:17.557Z,15.38
2022-10-02T08:27:54.588Z,7.97
2022-10-02T08:30:21.837Z,12.15
2022-10-02T08:32:50.857Z,9.73
2022-10-02T08:35:19.733Z,13.40
2022-10-02T08:38:10.078Z,12.10
2022-10-02T08:41:04.905Z,20.85
2022-10-02T08:43:45.042Z,13.35
2022-10-02T08:46:33.026Z,12.13
2022-10-02T08:49:21.510Z,14.15
2022-10-02T08:52:07.241Z,10.85
2022-10-02T08:54:35.226Z,14.10
2022-10-02T08:57:33.236Z,14.88
2022-10-02T09:00:15.608Z,13.48
2022-10-02T09:02:46.190Z,8.25
2022-10-02T09:05:39.565Z,15.55
2022-10-02T09:08:26.406Z,12.77
2022-10-02T09:11:08.882Z,9.15
2022-10-02T09:13:48.570Z,9.88
2022-10-02T09:16:40.312Z,13.02
2022-10-02T09:19:27.839Z,12.55
2022-10-02T09:21:57.847Z,8.52
2022-10-02T09:24:30.839Z,11.88
2022-10-02T09:26:58.059Z,12.73
2022-10-02T09:29:34.992Z,8.90
2022-10-02T09:32:34.652Z,11.15
2022-10-02T09:35:06.911Z,11.02
2022-10-02T09:38:05.490Z,10.23
2022-10-02T09:40:38.449Z,8.13
2022-10-02T09:43:05.698Z,18.13
2022-10-02T09:45:58.801Z,22.90
2022-10-02T09:48:35.500Z,19.83
2022-10-02T09:51:05.658Z,12.70
2022-10-02T09:53:51.793Z,8.95
2022-10-02T09:56:38.322Z,13.63
2022-10-02T09:59:22.499Z,8.73
2022-10-02T10:01:49.653Z,14.65
2022-10-02T10:04:19.901Z,10.65
2022-10-02T10:06:50.322Z,7.70
2022-10-02T10:09:23.729Z,12.25
2022-10-02T10:12:09.130Z,12.52
2022-10-02T10:14:54.956Z,10.93
2022-10-02T10:17:56.371Z,12.60
2022-10-02T10:20:38.255Z,9.43
2022-10-02T10:23:17.931Z,8.35
2022-10-02T10:25:51.326Z,11.48
2022-10-02T10:28:43.837Z,8.55
2022-10-02T10:31:20.391Z,12.05
2022-10-02T10:34:13.468Z,14.05
2022-10-02T10:36:59.499Z,11.23
2022-10-02T10:39:30.641Z,11.93
2022-10-02T10:42:16.658Z,9.63
2022-10-02T10:45:02.639Z,8.48
2022-10-02T10:47:39.121Z,10.32
2022-10-02T10:50:16.684Z,10.02
2022-10-02T10:53:06.334Z,10.85
2022-10-02T10:55:35.312Z,8.98
2022-10-02T10:58:09.156Z,8.85
2022-10-02T11:00:59.029Z,8.73
2022-10-02T11:03:44.917Z,11.13
2022-10-02T11:06:18.211Z,10.57
2022-10-02T11:08:58.546Z,10.05
2022-10-02T11:11:29.321Z,8.68
2022-10-02T11:14:12.773Z,9.40
2022-10-02T11:16:46.875Z,7.60
2022-10-02T11:19:26.634Z,7.28
2022-10-02T11:22:10.004Z,10.88
2022-10-02T11:24:46.448Z,9.85
2022-10-02T11:27:16.420Z,12.00
2022-10-02T11:29:49.429Z,9.43
2022-10-02T11:32:35.106Z,7.60
2022-10-02T11:35:08.495Z,11.40
2022-10-02T11:37:54.190Z,9.05
2022-10-02T11:40:34.819Z,4.68
2022-10-02T11:43:13.777Z,6.18
2022-10-02T11:45:47.938Z,9.98
2022-10-02T11:48:24.986Z,8.10
2022-10-02T11:51:10.593Z,10.57
2022-10-02T11:53:49.431Z,11.02
2022-10-02T11:56:31.560Z,9.90
2022-10-02T11:59:18.589Z,11.35
2022-10-02T12:01:52.922Z,8.07
2022-10-02T12:04:31.666Z,13.60
2022-10-02T12:07:22.704Z,12.07
2022-10-02T12:10:02.243Z,15.60
2022-10-02T12:12:51.606Z,10.02
2022-10-02T12:15:22.082Z,8.75
2022-10-02T12:17:58.328Z,9.57
2022-10-02T12:20:46.951Z,18.00
2022-10-02T12:23:32.628Z,9.40
2022-10-02T12:26:25.769Z,7.15
2022-10-02T12:29:00.111Z,10.68
2022-10-02T12:31:38.941Z,8.48
2022-10-02T12:34:09.534Z,9.77
2022-10-02T12:37:01.057Z,11.75
2022-10-02T12:39:41.943Z,11.32
2022-10-02T12:42:40.997Z,8.82
2022-10-02T12:45:20.351Z,7.20
2022-10-02T12:47:50.506Z,11.18
2022-10-02T12:50:52.534Z,8.75
2022-10-02T12:53:38.309Z,6.88
2022-10-02T12:56:05.440Z,7.78
2022-10-02T12:59:07.941Z,8.63
2022-10-02T13:01:59.714Z,11.77
2022-10-02T13:04:46.164Z,9.07
2022-10-02T13:07:13.614Z,9.32
2022-10-02T13:10:01.804Z,9.07
2022-10-02T13:12:41.143Z,11.85
2022-10-02T13:15:08.286Z,9.10
2022-10-02T13:17:35.926Z,7.20
2022-10-02T13:20:12.336Z,9.77
2022-10-02T13:22:54.545Z,9.32
2022-10-02T13:25:40.284Z,11.40
2022-10-02T13:28:33.766Z,6.22
2022-10-02T13:31:19.537Z,10.50
2022-10-02T13:34:09.753Z,7.57
2022-10-02T13:36:47.453Z,8.02
2022-10-02T13:39:33.668Z,8.25
2022-10-02T13:42:39.418Z,8.18
2022-10-02T13:45:09.144Z,6.95
2022-10-02T13:47:36.840Z,7.13
2022-10-02T13:50:22.088Z,6.95
2022-10-02T13:53:07.976Z,7.93
2022-10-02T13:55:39.394Z,6.85
2022-10-02T13:58:19.914Z,5.97
2022-10-02T14:03:14.229Z,8.93
2022-10-02T14:05:44.084Z,8.05
2022-10-02T14:08:20.842Z,2.95
2022-10-02T14:11:06.811Z,10.02
2022-10-02T14:14:12.588Z,8.45
2022-10-02T14:16:51.792Z,8.85
2022-10-02T14:19:45.228Z,7.78
2022-10-02T14:22:33.899Z,8.25
2022-10-02T14:25:07.405Z,9.50
2022-10-02T14:27:53.096Z,6.10
2022-10-02T14:30:28.858Z,12.10
2022-10-02T14:33:04.976Z,9.45
2022-10-02T14:35:41.051Z,7.95
2022-10-02T14:38:20.508Z,7.72
2022-10-02T14:40:55.002Z,9.10
2022-10-02T14:46:09.403Z,11.85
2022-10-02T14:48:48.665Z,11.35
2022-10-02T14:51:21.998Z,7.78
2022-10-02T14:54:03.344Z,9.05
2022-10-02T14:56:49.413Z,8.95
2022-10-02T14:59:23.724Z,7.13
2022-10-02T15:02:02.931Z,8.30
2022-10-02T15:04:36.071Z,11.20
2022-10-02T15:07:08.573Z,12.98
2022-10-02T15:09:54.794Z,8.65
2022-10-02T15:12:26.799Z,12.77
2022-10-02T15:15:05.371Z,8.13
2022-10-02T15:17:56.029Z,12.65
2022-10-02T15:20:41.686Z,14.20
2022-10-02T15:23:12.044Z,8.43
2022-10-02T15:25:43.321Z,10.18
2022-10-02T15:28:38.504Z,10.68
2022-10-02T15:31:11.719Z,7.55
2022-10-02T15:33:43.677Z,9.05
2022-10-02T15:36:19.448Z,10.07
2022-10-02T15:39:05.478Z,9.82
2022-10-02T15:41:39.240Z,10.30
2022-10-02T15:44:11.637Z,12.00
2022-10-02T15:46:54.081Z,11.75
2022-10-02T15:49:40.145Z,5.97
2022-10-02T15:52:19.182Z,6.97
2022-10-02T15:54:46.306Z,9.13
2022-10-02T15:57:22.176Z,8.05
2022-10-02T15:59:52.441Z,10.25
2022-10-02T16:02:34.633Z,7.78
2022-10-02T16:05:17.929Z,10.40
2022-10-02T16:07:47.877Z,8.05
2022-10-02T16:10:24.761Z,8.75
2022-10-02T16:12:59.503Z,12.50
2022-10-02T16:15:31.708Z,8.43
2022-10-02T16:18:15.115Z,8.40
2022-10-02T16:20:42.243Z,13.05
2022-10-02T16:23:12.610Z,11.27
2022-10-02T16:25:46.054Z,11.40
2022-10-02T16:28:13.189Z,12.93
2022-10-02T16:31:04.328Z,8.23
2022-10-02T16:33:51.059Z,12.23
2022-10-02T16:36:23.476Z,7.32
2022-10-02T16:39:03.250Z,11.43
2022-10-02T16:41:37.082Z,12.13
2022-10-02T16:44:04.582Z,12.65
2022-10-02T16:47:05.159Z,12.52
2022-10-02T16:49:34.772Z,13.73
2022-10-02T16:52:11.179Z,11.93
2022-10-02T16:54:49.591Z,12.63
2022-10-02T16:57:51.645Z,15.00
2022-10-02T17:00:37.586Z,11.45
2022-10-02T17:03:04.827Z,10.15
2022-10-02T17:05:49.305Z,11.75
2022-10-02T17:08:22.797Z,14.90
2022-10-02T17:11:10.196Z,10.30
2022-10-02T17:13:56.366Z,8.98
2022-10-02T17:16:27.051Z,8.85
2022-10-02T17:18:58.275Z,15.38
2022-10-02T17:21:29.425Z,9.88
2022-10-02T17:24:18.538Z,8.18
2022-10-02T17:27:04.323Z,9.85
2022-10-02T17:29:43.020Z,9.00
2022-10-02T17:32:11.584Z,9.20
2022-10-02T17:39:40.244Z,10.40
2022-10-02T17:42:16.926Z,10.35
2022-10-02T17:44:51.740Z,10.75
2022-10-02T17:49:47.003Z,11.88
2022-10-02T17:52:35.590Z,13.55
2022-10-02T17:55:24.864Z,16.88
2022-10-02T17:57:59.106Z,14.38
2022-10-02T18:00:26.735Z,10.70
2022-10-02T18:03:10.376Z,16.90
2022-10-02T18:05:43.806Z,12.88
2022-10-02T18:08:10.856Z,15.40
2022-10-02T18:10:49.520Z,13.85
2022-10-02T18:13:36.695Z,11.95
2022-10-02T18:16:27.135Z,16.08
2022-10-02T18:18:57.360Z,14.30
2022-10-02T18:21:39.330Z,15.95
2022-10-02T18:24:25.384Z,12.23
2022-10-02T18:27:05.045Z,12.30
2022-10-02T18:29:41.176Z,14.73
2022-10-02T18:32:16.094Z,12.70
2022-10-02T18:34:55.082Z,15.18
2022-10-02T18:37:34.752Z,12.45
2022-10-02T18:40:22.330Z,14.48
2022-10-02T18:42:57.136Z,12.15
2022-10-02T18:45:28.103Z,15.60
2022-10-02T18:48:19.373Z,13.85
2022-10-02T18:50:56.044Z,12.45
2022-10-02T18:53:23.276Z,13.85
2022-10-02T18:56:09.682Z,14.00
2022-10-02T18:58:43.319Z,11.82
2022-10-02T19:01:16.418Z,17.98
2022-10-02T19:04:02.598Z,8.65
2022-10-02T19:06:48.399Z,14.73
2022-10-02T19:09:20.055Z,11.07
2022-10-02T19:11:48.707Z,14.60
2022-10-02T19:14:17.144Z,15.18
2022-10-02T19:17:00.875Z,14.50
2022-10-02T19:19:28.841Z,12.40
2022-10-02T19:21:59.534Z,13.18
2022-10-02T19:24:44.649Z,11.77
2022-10-02T19:27:17.371Z,13.00
2022-10-02T19:29:48.716Z,22.20
2022-10-02T19:32:42.199Z,14.55
2022-10-02T19:35:12.295Z,19.75
2022-10-02T19:37:41.476Z,21.17
2022-10-02T19:40:15.233Z,16.20
2022-10-02T19:42:47.479Z,15.15
2022-10-02T19:45:24.535Z,16.88
2022-10-02T19:47:54.078Z,19.10
2022-10-02T19:50:23.356Z,16.30
2022-10-02T19:52:54.572Z,12.50
2022-10-02T19:55:23.978Z,13.60
2022-10-02T19:57:52.485Z,15.48
2022-10-02T20:00:19.933Z,13.88
2022-10-02T20:02:48.663Z,43.90
2022-10-02T20:05:21.032Z,39.28
2022-10-02T20:07:49.540Z,35.25
2022-10-02T20:10:19.309Z,70.68
2022-10-02T20:12:50.240Z,81.38
2022-10-02T20:15:43.635Z,54.53
2022-10-02T20:18:13.024Z,53.35
2022-10-02T20:20:40.764Z,34.75
2022-10-02T20:23:11.793Z,28.25
2022-10-02T20:25:42.207Z,17.65
2022-10-02T20:28:09.380Z,19.67
2022-10-02T20:30:41.805Z,14.02
2022-10-02T20:33:14.704Z,14.82
2022-10-02T20:35:50.925Z,15.23
2022-10-02T20:38:22.008Z,19.20
2022-10-02T20:40:53.357Z,18.73
2022-10-02T20:43:32.675Z,17.98
2022-10-02T20:46:05.857Z,17.17
2022-10-02T20:49:08.822Z,17.35
2022-10-02T20:51:41.951Z,14.70
2022-10-02T20:54:30.176Z,18.08
2022-10-02T20:56:57.338Z,17.85
2022-10-02T20:59:33.279Z,9.95
2022-10-02T21:02:19.091Z,15.50
2022-10-02T21:05:04.798Z,14.45
2022-10-02T21:07:44.505Z,13.32
2022-10-02T21:10:27.978Z,16.98
2022-10-02T21:13:13.938Z,17.02
2022-10-02T21:15:55.317Z,12.52
2022-10-02T21:18:54.841Z,16.63
2022-10-02T21:21:40.331Z,10.73
2022-10-02T21:24:26.319Z,11.75
2022-10-02T21:27:12.316Z,12.80
2022-10-02T21:29:58.154Z,8.35
2022-10-02T21:32:25.504Z,9.18
2022-10-02T21:34:55.586Z,11.13
2022-10-02T21:37:38.798Z,11.68
2022-10-02T21:40:13.509Z,13.98
2022-10-02T21:43:02.637Z,10.30
2022-10-02T21:45:35.887Z,7.40
2022-10-02T21:48:18.373Z,8.95
2022-10-02T21:50:56.709Z,13.90
2022-10-02T21:53:36.874Z,9.98
2022-10-02T21:56:23.937Z,7.50
2022-10-02T22:01:18.100Z,13.10
2022-10-02T22:04:23.804Z,10.13
2022-10-02T22:06:58.061Z,9.45
2022-10-02T22:09:36.555Z,8.90
2022-10-02T22:12:20.060Z,10.20
2022-10-02T22:15:02.391Z,11.30
2022-10-02T22:17:35.107Z,11.65
2022-10-02T22:20:06.948Z,14.52
2022-10-02T22:22:37.024Z,12.57
2022-10-02T22:25:11.253Z,13.32
2022-10-02T22:27:49.204Z,11.20
2022-10-02T22:30:24.961Z,14.85
2022-10-02T22:33:10.772Z,12.73
2022-10-02T22:35:58.577Z,10.00
2022-10-02T22:38:36.424Z,9.30
2022-10-02T22:41:22.164Z,11.80
2022-10-02T22:43:51.320Z,12.18
2022-10-02T22:46:30.766Z,7.63
2022-10-02T22:49:16.776Z,7.43
2022-10-02T22:51:47.425Z,10.32
2022-10-02T22:54:14.495Z,11.90
2022-10-02T22:56:47.723Z,9.77
2022-10-02T22:59:18.100Z,6.85
2022-10-02T23:01:49.546Z,6.95
2022-10-02T23:04:22.571Z,8.35
2022-10-02T23:06:53.449Z,8.75
2022-10-02T23:09:39.368Z,6.50
2022-10-02T23:12:16.581Z,8.23
2022-10-02T23:14:52.884Z,9.88
2022-10-02T23:17:38.304Z,6.15
2022-10-02T23:20:11.334Z,4.82
2022-10-02T23:22:58.699Z,5.90
2022-10-02T23:25:33.681Z,10.05
2022-10-02T23:28:11.282Z,7.25
2022-10-02T23:30:44.518Z,7.65
2022-10-02T23:33:17.840Z,7.88
2022-10-02T23:35:48.237Z,7.05
2022-10-02T23:38:37.021Z,4.60
2022-10-02T23:41:25.429Z,7.93
2022-10-02T23:44:00.233Z,7.28
2022-10-02T23:46:31.716Z,6.63
2022-10-02T23:48:59.120Z,6.50
2022-10-02T23:51:34.072Z,9.40
2022-10-02T23:56:37.508Z,14.52
2022-10-02T23:59:27.620Z,9.32
